sensor_id;sensor_type;location;lat;lon;timestamp;temperature;humidity
65470;DHT22;52067;50.710;14.492;2022-10-26T00:00:12;5.30;89.47
65470;DHT22;52067;50.710;14.492;2022-10-26T00:02:37;5.38;88.96
65470;DHT22;52067;50.710;14.492;2022-10-26T00:05:02;5.45;88.79
65470;DHT22;52067;50.710;14.492;2022-10-26T00:07:28;5.34;88.77
65470;DHT22;52067;50.710;14.492;2022-10-26T00:09:54;5.42;88.53
65470;DHT22;52067;50.710;14.492;2022-10-26T00:12:19;5.40;88.49
65470;DHT22;52067;50.710;14.492;2022-10-26T00:14:45;5.45;88.32
65470;DHT22;52067;50.710;14.492;2022-10-26T00:17:10;5.13;89.28
65470;DHT22;52067;50.710;14.492;2022-10-26T00:19:35;5.10;89.88
65470;DHT22;52067;50.710;14.492;2022-10-26T00:22:02;5.17;90.43
65470;DHT22;52067;50.710;14.492;2022-10-26T00:24:27;5.32;90.09
65470;DHT22;52067;50.710;14.492;2022-10-26T00:26:52;5.32;89.42
65470;DHT22;52067;50.710;14.492;2022-10-26T00:29:17;5.16;89.38
65470;DHT22;52067;50.710;14.492;2022-10-26T00:31:43;5.30;89.61
65470;DHT22;52067;50.710;14.492;2022-10-26T00:34:09;5.19;89.44
65470;DHT22;52067;50.710;14.492;2022-10-26T00:36:35;5.32;89.45
65470;DHT22;52067;50.710;14.492;2022-10-26T00:39:00;5.48;89.34
65470;DHT22;52067;50.710;14.492;2022-10-26T00:41:27;5.54;89.55
65470;DHT22;52067;50.710;14.492;2022-10-26T00:43:52;5.54;89.46
65470;DHT22;52067;50.710;14.492;2022-10-26T00:48:54;5.54;89.56
65470;DHT22;52067;50.710;14.492;2022-10-26T00:51:24;5.44;89.23
65470;DHT22;52067;50.710;14.492;2022-10-26T00:53:51;4.97;90.51
65470;DHT22;52067;50.710;14.492;2022-10-26T00:56:17;5.14;90.80
65470;DHT22;52067;50.710;14.492;2022-10-26T00:58:43;5.31;90.60
65470;DHT22;52067;50.710;14.492;2022-10-26T01:01:08;5.00;91.67
65470;DHT22;52067;50.710;14.492;2022-10-26T01:03:34;5.11;91.65
65470;DHT22;52067;50.710;14.492;2022-10-26T01:05:59;5.17;91.10
65470;DHT22;52067;50.710;14.492;2022-10-26T01:08:26;5.34;91.10
65470;DHT22;52067;50.710;14.492;2022-10-26T01:10:52;5.16;91.01
65470;DHT22;52067;50.710;14.492;2022-10-26T01:13:18;4.90;91.97
65470;DHT22;52067;50.710;14.492;2022-10-26T01:15:55;5.20;92.42
65470;DHT22;52067;50.710;14.492;2022-10-26T01:18:36;5.03;92.24
65470;DHT22;52067;50.710;14.492;2022-10-26T01:23:50;4.92;93.74
65470;DHT22;52067;50.710;14.492;2022-10-26T01:29:06;4.99;93.51
65470;DHT22;52067;50.710;14.492;2022-10-26T01:31:46;4.77;93.84
65470;DHT22;52067;50.710;14.492;2022-10-26T01:34:21;4.89;93.70
65470;DHT22;52067;50.710;14.492;2022-10-26T01:36:55;4.73;93.94
65470;DHT22;52067;50.710;14.492;2022-10-26T01:39:35;4.89;93.95
65470;DHT22;52067;50.710;14.492;2022-10-26T01:42:02;5.01;93.67
65470;DHT22;52067;50.710;14.492;2022-10-26T01:44:39;5.11;93.30
65470;DHT22;52067;50.710;14.492;2022-10-26T01:47:06;5.07;93.01
65470;DHT22;52067;50.710;14.492;2022-10-26T01:49:34;5.17;92.80
65470;DHT22;52067;50.710;14.492;2022-10-26T01:52:00;5.31;92.47
65470;DHT22;52067;50.710;14.492;2022-10-26T01:54:26;5.34;92.26
65470;DHT22;52067;50.710;14.492;2022-10-26T01:56:53;5.20;92.42
65470;DHT22;52067;50.710;14.492;2022-10-26T02:04:55;5.44;91.76
65470;DHT22;52067;50.710;14.492;2022-10-26T02:07:28;5.45;91.94
65470;DHT22;52067;50.710;14.492;2022-10-26T02:12:49;5.59;92.08
65470;DHT22;52067;50.710;14.492;2022-10-26T02:15:34;5.83;91.68
65470;DHT22;52067;50.710;14.492;2022-10-26T02:18:07;5.99;91.36
65470;DHT22;52067;50.710;14.492;2022-10-26T02:20:39;5.92;91.04
65470;DHT22;52067;50.710;14.492;2022-10-26T02:23:06;5.86;91.22
65470;DHT22;52067;50.710;14.492;2022-10-26T02:25:32;5.72;91.51
65470;DHT22;52067;50.710;14.492;2022-10-26T02:28:04;5.68;92.12
65470;DHT22;52067;50.710;14.492;2022-10-26T02:30:31;5.98;92.18
65470;DHT22;52067;50.710;14.492;2022-10-26T02:32:57;5.76;91.95
65470;DHT22;52067;50.710;14.492;2022-10-26T02:35:24;5.78;92.53
65470;DHT22;52067;50.710;14.492;2022-10-26T02:37:51;5.76;92.71
65470;DHT22;52067;50.710;14.492;2022-10-26T02:40:18;5.85;92.73
65470;DHT22;52067;50.710;14.492;2022-10-26T02:42:44;5.89;92.71
65470;DHT22;52067;50.710;14.492;2022-10-26T02:45:11;5.90;92.70
65470;DHT22;52067;50.710;14.492;2022-10-26T02:47:37;5.99;92.90
65470;DHT22;52067;50.710;14.492;2022-10-26T02:50:02;6.10;92.70
65470;DHT22;52067;50.710;14.492;2022-10-26T02:52:49;5.75;92.93
65470;DHT22;52067;50.710;14.492;2022-10-26T02:57:42;5.99;93.29
65470;DHT22;52067;50.710;14.492;2022-10-26T03:00:16;5.98;93.22
65470;DHT22;52067;50.710;14.492;2022-10-26T03:02:42;6.23;92.98
65470;DHT22;52067;50.710;14.492;2022-10-26T03:05:12;6.26;92.53
65470;DHT22;52067;50.710;14.492;2022-10-26T03:07:39;6.29;92.24
65470;DHT22;52067;50.710;14.492;2022-10-26T03:10:04;6.44;92.18
65470;DHT22;52067;50.710;14.492;2022-10-26T03:12:30;6.31;91.86
65470;DHT22;52067;50.710;14.492;2022-10-26T03:14:55;6.42;91.93
65470;DHT22;52067;50.710;14.492;2022-10-26T03:17:20;6.20;92.20
65470;DHT22;52067;50.710;14.492;2022-10-26T03:19:45;6.29;92.31
65470;DHT22;52067;50.710;14.492;2022-10-26T03:22:11;6.30;92.58
65470;DHT22;52067;50.710;14.492;2022-10-26T03:24:36;6.48;92.62
65470;DHT22;52067;50.710;14.492;2022-10-26T03:27:01;6.52;92.53
65470;DHT22;52067;50.710;14.492;2022-10-26T03:29:26;6.68;92.32
65470;DHT22;52067;50.710;14.492;2022-10-26T03:31:52;6.68;91.92
65470;DHT22;52067;50.710;14.492;2022-10-26T03:34:19;6.74;91.85
65470;DHT22;52067;50.710;14.492;2022-10-26T03:36:45;6.69;91.82
65470;DHT22;52067;50.710;14.492;2022-10-26T03:39:10;6.57;91.96
65470;DHT22;52067;50.710;14.492;2022-10-26T03:41:35;6.45;92.40
65470;DHT22;52067;50.710;14.492;2022-10-26T03:44:01;6.58;92.28
65470;DHT22;52067;50.710;14.492;2022-10-26T03:46:26;6.52;92.25
65470;DHT22;52067;50.710;14.492;2022-10-26T03:48:51;6.65;92.33
65470;DHT22;52067;50.710;14.492;2022-10-26T03:51:16;6.55;92.13
65470;DHT22;52067;50.710;14.492;2022-10-26T03:53:42;6.60;92.54
65470;DHT22;52067;50.710;14.492;2022-10-26T03:56:07;6.77;92.38
65470;DHT22;52067;50.710;14.492;2022-10-26T03:58:32;6.95;92.04
65470;DHT22;52067;50.710;14.492;2022-10-26T04:00:57;6.79;91.80
65470;DHT22;52067;50.710;14.492;2022-10-26T04:03:23;6.69;92.06
65470;DHT22;52067;50.710;14.492;2022-10-26T04:05:48;6.64;92.27
65470;DHT22;52067;50.710;14.492;2022-10-26T04:08:13;6.84;92.39
65470;DHT22;52067;50.710;14.492;2022-10-26T04:10:38;6.79;91.99
65470;DHT22;52067;50.710;14.492;2022-10-26T04:13:04;6.89;92.29
65470;DHT22;52067;50.710;14.492;2022-10-26T04:15:29;6.93;92.04
65470;DHT22;52067;50.710;14.492;2022-10-26T04:18:00;7.02;91.92
65470;DHT22;52067;50.710;14.492;2022-10-26T04:20:26;6.98;91.64
65470;DHT22;52067;50.710;14.492;2022-10-26T04:23:02;6.71;92.41
65470;DHT22;52067;50.710;14.492;2022-10-26T04:25:28;6.71;92.55
65470;DHT22;52067;50.710;14.492;2022-10-26T04:27:54;6.82;92.36
65470;DHT22;52067;50.710;14.492;2022-10-26T04:30:19;6.89;92.40
65470;DHT22;52067;50.710;14.492;2022-10-26T04:32:45;7.06;92.02
65470;DHT22;52067;50.710;14.492;2022-10-26T04:35:10;7.10;91.70
65470;DHT22;52067;50.710;14.492;2022-10-26T04:37:35;6.89;92.27
65470;DHT22;52067;50.710;14.492;2022-10-26T04:40:00;6.67;93.15
65470;DHT22;52067;50.710;14.492;2022-10-26T04:42:26;6.95;93.31
65470;DHT22;52067;50.710;14.492;2022-10-26T04:44:51;6.93;92.87
65470;DHT22;52067;50.710;14.492;2022-10-26T04:47:16;6.93;92.61
65470;DHT22;52067;50.710;14.492;2022-10-26T04:49:41;6.82;92.53
65470;DHT22;52067;50.710;14.492;2022-10-26T04:52:07;6.89;92.69
65470;DHT22;52067;50.710;14.492;2022-10-26T04:54:32;6.79;92.87
65470;DHT22;52067;50.710;14.492;2022-10-26T04:56:57;6.84;93.01
65470;DHT22;52067;50.710;14.492;2022-10-26T04:59:22;6.75;93.06
65470;DHT22;52067;50.710;14.492;2022-10-26T05:01:48;6.87;93.04
65470;DHT22;52067;50.710;14.492;2022-10-26T05:04:13;6.82;93.11
65470;DHT22;52067;50.710;14.492;2022-10-26T05:06:38;6.93;93.08
65470;DHT22;52067;50.710;14.492;2022-10-26T05:09:04;6.71;93.30
65470;DHT22;52067;50.710;14.492;2022-10-26T05:11:29;6.87;93.40
65470;DHT22;52067;50.710;14.492;2022-10-26T05:13:54;6.92;93.40
65470;DHT22;52067;50.710;14.492;2022-10-26T05:16:19;7.02;93.21
65470;DHT22;52067;50.710;14.492;2022-10-26T05:18:46;7.12;93.08
65470;DHT22;52067;50.710;14.492;2022-10-26T05:21:12;7.20;92.93
65470;DHT22;52067;50.710;14.492;2022-10-26T05:23:43;7.42;92.61
65470;DHT22;52067;50.710;14.492;2022-10-26T05:26:08;7.43;92.23
65470;DHT22;52067;50.710;14.492;2022-10-26T05:28:33;7.51;92.07
65470;DHT22;52067;50.710;14.492;2022-10-26T05:30:59;7.56;91.96
65470;DHT22;52067;50.710;14.492;2022-10-26T05:33:24;7.53;91.83
65470;DHT22;52067;50.710;14.492;2022-10-26T05:35:52;7.43;91.93
65470;DHT22;52067;50.710;14.492;2022-10-26T05:38:17;7.54;91.93
65470;DHT22;52067;50.710;14.492;2022-10-26T05:40:52;7.54;91.90
65470;DHT22;52067;50.710;14.492;2022-10-26T05:43:18;7.29;92.02
65470;DHT22;52067;50.710;14.492;2022-10-26T05:45:44;7.15;93.40
65470;DHT22;52067;50.710;14.492;2022-10-26T05:48:09;7.34;93.13
65470;DHT22;52067;50.710;14.492;2022-10-26T05:50:35;7.48;92.79
65470;DHT22;52067;50.710;14.492;2022-10-26T05:53:00;7.50;92.36
65470;DHT22;52067;50.710;14.492;2022-10-26T05:55:26;7.57;92.17
65470;DHT22;52067;50.710;14.492;2022-10-26T05:57:51;7.73;92.07
65470;DHT22;52067;50.710;14.492;2022-10-26T06:00:17;7.67;91.93
65470;DHT22;52067;50.710;14.492;2022-10-26T06:02:57;7.56;91.82
65470;DHT22;52067;50.710;14.492;2022-10-26T06:05:25;7.66;92.23
65470;DHT22;52067;50.710;14.492;2022-10-26T06:07:51;7.73;92.15
65470;DHT22;52067;50.710;14.492;2022-10-26T06:10:17;7.66;92.08
65470;DHT22;52067;50.710;14.492;2022-10-26T06:12:43;7.61;92.19
65470;DHT22;52067;50.710;14.492;2022-10-26T06:15:13;7.75;92.34
65470;DHT22;52067;50.710;14.492;2022-10-26T06:25:22;8.03;91.50
65470;DHT22;52067;50.710;14.492;2022-10-26T06:28:04;7.98;91.57
65470;DHT22;52067;50.710;14.492;2022-10-26T06:30:33;7.82;91.82
65470;DHT22;52067;50.710;14.492;2022-10-26T06:32:58;7.63;92.24
65470;DHT22;52067;50.710;14.492;2022-10-26T06:38:08;7.53;94.09
65470;DHT22;52067;50.710;14.492;2022-10-26T06:40:35;7.61;93.97
65470;DHT22;52067;50.710;14.492;2022-10-26T06:43:01;7.78;93.74
65470;DHT22;52067;50.710;14.492;2022-10-26T06:45:26;7.99;93.37
65470;DHT22;52067;50.710;14.492;2022-10-26T06:53:13;8.35;92.58
65470;DHT22;52067;50.710;14.492;2022-10-26T06:55:41;8.57;91.95
65470;DHT22;52067;50.710;14.492;2022-10-26T06:58:14;8.35;92.00
65470;DHT22;52067;50.710;14.492;2022-10-26T07:00:41;8.60;91.84
65470;DHT22;52067;50.710;14.492;2022-10-26T07:03:06;8.71;91.39
65470;DHT22;52067;50.710;14.492;2022-10-26T07:05:32;8.61;91.16
65470;DHT22;52067;50.710;14.492;2022-10-26T07:07:57;8.70;91.61
65470;DHT22;52067;50.710;14.492;2022-10-26T07:10:23;8.91;91.38
65470;DHT22;52067;50.710;14.492;2022-10-26T07:12:48;9.01;90.85
65470;DHT22;52067;50.710;14.492;2022-10-26T07:15:13;8.74;91.34
65470;DHT22;52067;50.710;14.492;2022-10-26T07:17:42;8.70;91.62
65470;DHT22;52067;50.710;14.492;2022-10-26T07:20:08;8.64;91.98
65470;DHT22;52067;50.710;14.492;2022-10-26T07:22:34;8.40;92.59
65470;DHT22;52067;50.710;14.492;2022-10-26T07:24:59;8.45;92.48
65470;DHT22;52067;50.710;14.492;2022-10-26T07:27:24;8.47;92.85
65470;DHT22;52067;50.710;14.492;2022-10-26T07:29:50;8.50;92.42
65470;DHT22;52067;50.710;14.492;2022-10-26T07:32:15;8.43;92.74
65470;DHT22;52067;50.710;14.492;2022-10-26T07:34:40;8.50;92.68
65470;DHT22;52067;50.710;14.492;2022-10-26T07:37:05;8.52;92.76
65470;DHT22;52067;50.710;14.492;2022-10-26T07:39:31;8.61;92.72
65470;DHT22;52067;50.710;14.492;2022-10-26T07:41:57;8.83;92.43
65470;DHT22;52067;50.710;14.492;2022-10-26T07:44:22;9.00;91.67
65470;DHT22;52067;50.710;14.492;2022-10-26T07:46:47;9.12;91.25
65470;DHT22;52067;50.710;14.492;2022-10-26T07:49:12;9.08;91.21
65470;DHT22;52067;50.710;14.492;2022-10-26T07:51:37;9.18;91.24
65470;DHT22;52067;50.710;14.492;2022-10-26T07:54:03;9.32;90.96
65470;DHT22;52067;50.710;14.492;2022-10-26T07:56:28;9.46;90.31
65470;DHT22;52067;50.710;14.492;2022-10-26T07:58:54;9.59;90.06
65470;DHT22;52067;50.710;14.492;2022-10-26T08:01:19;9.60;89.97
65470;DHT22;52067;50.710;14.492;2022-10-26T08:03:45;9.57;90.29
65470;DHT22;52067;50.710;14.492;2022-10-26T08:06:10;9.60;90.59
65470;DHT22;52067;50.710;14.492;2022-10-26T08:08:36;9.69;90.58
65470;DHT22;52067;50.710;14.492;2022-10-26T08:11:01;9.83;90.49
65470;DHT22;52067;50.710;14.492;2022-10-26T08:13:27;10.08;89.97
65470;DHT22;52067;50.710;14.492;2022-10-26T08:15:58;9.87;90.17
65470;DHT22;52067;50.710;14.492;2022-10-26T08:18:24;10.21;89.98
65470;DHT22;52067;50.710;14.492;2022-10-26T08:20:50;10.28;89.22
65470;DHT22;52067;50.710;14.492;2022-10-26T08:23:15;9.97;89.77
65470;DHT22;52067;50.710;14.492;2022-10-26T08:25:40;9.73;90.01
65470;DHT22;52067;50.710;14.492;2022-10-26T08:28:06;10.04;89.90
65470;DHT22;52067;50.710;14.492;2022-10-26T08:30:31;10.28;89.50
65470;DHT22;52067;50.710;14.492;2022-10-26T08:33:00;10.31;89.90
65470;DHT22;52067;50.710;14.492;2022-10-26T08:35:26;10.35;89.59
65470;DHT22;52067;50.710;14.492;2022-10-26T08:37:52;10.56;89.15
65470;DHT22;52067;50.710;14.492;2022-10-26T08:40:17;10.68;88.76
65470;DHT22;52067;50.710;14.492;2022-10-26T08:42:44;10.41;90.08
65470;DHT22;52067;50.710;14.492;2022-10-26T08:45:22;10.45;89.45
65470;DHT22;52067;50.710;14.492;2022-10-26T08:47:49;10.35;89.50
65470;DHT22;52067;50.710;14.492;2022-10-26T08:52:49;10.35;88.63
65470;DHT22;52067;50.710;14.492;2022-10-26T08:55:18;10.51;88.86
65470;DHT22;52067;50.710;14.492;2022-10-26T08:57:45;10.55;88.62
65470;DHT22;52067;50.710;14.492;2022-10-26T09:00:16;10.41;88.21
65470;DHT22;52067;50.710;14.492;2022-10-26T09:02:42;10.44;88.16
65470;DHT22;52067;50.710;14.492;2022-10-26T09:05:13;10.55;88.47
65470;DHT22;52067;50.710;14.492;2022-10-26T09:17:55;10.96;89.36
65470;DHT22;52067;50.710;14.492;2022-10-26T09:25:45;10.92;87.62
65470;DHT22;52067;50.710;14.492;2022-10-26T09:28:14;11.04;88.04
65470;DHT22;52067;50.710;14.492;2022-10-26T09:30:42;10.95;88.31
65470;DHT22;52067;50.710;14.492;2022-10-26T09:33:11;10.83;88.12
65470;DHT22;52067;50.710;14.492;2022-10-26T09:40:30;11.44;86.84
65470;DHT22;52067;50.710;14.492;2022-10-26T09:43:04;11.48;86.11
65470;DHT22;52067;50.710;14.492;2022-10-26T09:45:35;11.64;86.21
65470;DHT22;52067;50.710;14.492;2022-10-26T09:48:05;11.74;85.81
65470;DHT22;52067;50.710;14.492;2022-10-26T09:50:35;11.88;86.37
65470;DHT22;52067;50.710;14.492;2022-10-26T09:53:01;11.88;85.17
65470;DHT22;52067;50.710;14.492;2022-10-26T09:55:26;12.15;84.96
65470;DHT22;52067;50.710;14.492;2022-10-26T09:57:53;12.00;84.46
65470;DHT22;52067;50.710;14.492;2022-10-26T10:00:20;11.92;87.00
65470;DHT22;52067;50.710;14.492;2022-10-26T10:02:49;12.25;84.64
65470;DHT22;52067;50.710;14.492;2022-10-26T10:05:19;12.38;84.53
65470;DHT22;52067;50.710;14.492;2022-10-26T10:07:44;12.56;83.56
65470;DHT22;52067;50.710;14.492;2022-10-26T10:10:14;12.44;83.64
65470;DHT22;52067;50.710;14.492;2022-10-26T10:12:40;12.26;83.67
65470;DHT22;52067;50.710;14.492;2022-10-26T10:15:12;12.32;84.57
65470;DHT22;52067;50.710;14.492;2022-10-26T10:17:40;12.06;86.25
65470;DHT22;52067;50.710;14.492;2022-10-26T10:20:16;12.38;85.17
65470;DHT22;52067;50.710;14.492;2022-10-26T10:22:51;11.74;85.71
65470;DHT22;52067;50.710;14.492;2022-10-26T10:25:22;11.75;86.20
65470;DHT22;52067;50.710;14.492;2022-10-26T10:27:51;12.13;85.35
65470;DHT22;52067;50.710;14.492;2022-10-26T10:30:27;12.36;85.10
65470;DHT22;52067;50.710;14.492;2022-10-26T10:33:03;12.89;83.70
65470;DHT22;52067;50.710;14.492;2022-10-26T10:35:28;12.85;82.76
65470;DHT22;52067;50.710;14.492;2022-10-26T10:37:54;12.65;82.68
65470;DHT22;52067;50.710;14.492;2022-10-26T10:40:19;12.46;82.96
65470;DHT22;52067;50.710;14.492;2022-10-26T10:42:45;12.41;83.57
65470;DHT22;52067;50.710;14.492;2022-10-26T10:45:24;12.47;83.45
65470;DHT22;52067;50.710;14.492;2022-10-26T10:50:34;12.47;83.75
65470;DHT22;52067;50.710;14.492;2022-10-26T10:55:48;12.40;83.63
65470;DHT22;52067;50.710;14.492;2022-10-26T10:58:19;12.78;83.42
65470;DHT22;52067;50.710;14.492;2022-10-26T11:00:48;12.89;82.79
65470;DHT22;52067;50.710;14.492;2022-10-26T11:08:25;13.15;81.49
65470;DHT22;52067;50.710;14.492;2022-10-26T11:11:07;13.18;82.07
65470;DHT22;52067;50.710;14.492;2022-10-26T11:16:47;12.92;83.60
65470;DHT22;52067;50.710;14.492;2022-10-26T11:21:36;14.04;79.85
65470;DHT22;52067;50.710;14.492;2022-10-26T11:26:43;14.65;77.59
65470;DHT22;52067;50.710;14.492;2022-10-26T11:31:43;14.68;78.37
65470;DHT22;52067;50.710;14.492;2022-10-26T11:37:01;14.20;77.85
65470;DHT22;52067;50.710;14.492;2022-10-26T11:39:33;13.91;77.84
65470;DHT22;52067;50.710;14.492;2022-10-26T11:42:01;15.04;75.41
65470;DHT22;52067;50.710;14.492;2022-10-26T11:44:28;15.54;74.06
65470;DHT22;52067;50.710;14.492;2022-10-26T11:46:55;17.06;69.35
65470;DHT22;52067;50.710;14.492;2022-10-26T11:49:59;17.66;67.33
65470;DHT22;52067;50.710;14.492;2022-10-26T11:52:27;17.42;67.18
65470;DHT22;52067;50.710;14.492;2022-10-26T11:54:55;17.63;66.12
65470;DHT22;52067;50.710;14.492;2022-10-26T11:57:22;18.46;64.72
65470;DHT22;52067;50.710;14.492;2022-10-26T11:59:58;17.84;67.48
65470;DHT22;52067;50.710;14.492;2022-10-26T12:02:24;18.15;64.67
65470;DHT22;52067;50.710;14.492;2022-10-26T12:04:52;18.29;65.08
65470;DHT22;52067;50.710;14.492;2022-10-26T12:07:36;18.79;63.41
65470;DHT22;52067;50.710;14.492;2022-10-26T12:10:03;18.29;65.11
65470;DHT22;52067;50.710;14.492;2022-10-26T12:12:44;17.08;69.04
65470;DHT22;52067;50.710;14.492;2022-10-26T12:15:15;15.93;71.17
65470;DHT22;52067;50.710;14.492;2022-10-26T12:22:39;17.44;66.81
65470;DHT22;52067;50.710;14.492;2022-10-26T12:35:46;16.58;68.59
65470;DHT22;52067;50.710;14.492;2022-10-26T12:37:47;16.84;70.34
65470;DHT22;52067;50.710;14.492;2022-10-26T12:45:42;18.97;63.37
65470;DHT22;52067;50.710;14.492;2022-10-26T12:50:36;18.63;63.68
65470;DHT22;52067;50.710;14.492;2022-10-26T12:53:04;17.40;66.98
65470;DHT22;52067;50.710;14.492;2022-10-26T13:00:50;16.48;70.09
65470;DHT22;52067;50.710;14.492;2022-10-26T13:03:27;16.17;71.01
65470;DHT22;52067;50.710;14.492;2022-10-26T13:08:22;16.84;68.94
65470;DHT22;52067;50.710;14.492;2022-10-26T13:11:01;15.59;72.86
65470;DHT22;52067;50.710;14.492;2022-10-26T13:13:27;14.91;76.08
65470;DHT22;52067;50.710;14.492;2022-10-26T13:15:54;15.38;74.58
65470;DHT22;52067;50.710;14.492;2022-10-26T13:18:20;15.32;76.02
65470;DHT22;52067;50.710;14.492;2022-10-26T13:23:30;16.33;72.98
65470;DHT22;52067;50.710;14.492;2022-10-26T13:31:02;16.26;72.17
65470;DHT22;52067;50.710;14.492;2022-10-26T13:33:34;16.16;72.01
65470;DHT22;52067;50.710;14.492;2022-10-26T13:36:00;16.18;72.55
65470;DHT22;52067;50.710;14.492;2022-10-26T13:38:28;15.79;73.85
65470;DHT22;52067;50.710;14.492;2022-10-26T13:40:59;15.82;74.01
65470;DHT22;52067;50.710;14.492;2022-10-26T13:43:26;16.05;73.24
65470;DHT22;52067;50.710;14.492;2022-10-26T13:45:53;15.73;74.72
65470;DHT22;52067;50.710;14.492;2022-10-26T13:48:26;15.83;74.68
65470;DHT22;52067;50.710;14.492;2022-10-26T13:50:55;16.05;74.46
65470;DHT22;52067;50.710;14.492;2022-10-26T13:56:05;15.86;74.10
65470;DHT22;52067;50.710;14.492;2022-10-26T13:58:37;15.59;75.20
65470;DHT22;52067;50.710;14.492;2022-10-26T14:03:38;15.08;77.68
65470;DHT22;52067;50.710;14.492;2022-10-26T14:06:04;15.30;77.26
65470;DHT22;52067;50.710;14.492;2022-10-26T14:08:30;15.20;77.22
65470;DHT22;52067;50.710;14.492;2022-10-26T14:10:56;15.44;76.61
65470;DHT22;52067;50.710;14.492;2022-10-26T14:13:23;15.52;76.27
65470;DHT22;52067;50.710;14.492;2022-10-26T14:15:52;15.59;76.02
65470;DHT22;52067;50.710;14.492;2022-10-26T14:18:22;15.58;76.28
65470;DHT22;52067;50.710;14.492;2022-10-26T14:20:54;15.47;76.23
65470;DHT22;52067;50.710;14.492;2022-10-26T14:23:27;15.30;77.51
65470;DHT22;52067;50.710;14.492;2022-10-26T14:25:53;15.41;76.73
65470;DHT22;52067;50.710;14.492;2022-10-26T14:28:29;15.26;76.98
65470;DHT22;52067;50.710;14.492;2022-10-26T14:33:57;16.96;72.85
65470;DHT22;52067;50.710;14.492;2022-10-26T14:36:44;18.08;69.21
65470;DHT22;52067;50.710;14.492;2022-10-26T14:41:44;18.45;66.72
65470;DHT22;52067;50.710;14.492;2022-10-26T14:44:15;17.95;67.59
65470;DHT22;52067;50.710;14.492;2022-10-26T14:46:41;16.79;70.32
65470;DHT22;52067;50.710;14.492;2022-10-26T14:49:12;16.44;72.13
65470;DHT22;52067;50.710;14.492;2022-10-26T14:51:39;16.23;73.67
65470;DHT22;52067;50.710;14.492;2022-10-26T14:54:16;16.30;73.47
65470;DHT22;52067;50.710;14.492;2022-10-26T14:56:42;17.05;70.88
65470;DHT22;52067;50.710;14.492;2022-10-26T14:59:16;16.53;71.73
65470;DHT22;52067;50.710;14.492;2022-10-26T15:01:55;16.06;73.54
65470;DHT22;52067;50.710;14.492;2022-10-26T15:04:35;15.18;76.90
65470;DHT22;52067;50.710;14.492;2022-10-26T15:12:52;15.10;76.65
65470;DHT22;52067;50.710;14.492;2022-10-26T15:15:41;14.94;77.00
65470;DHT22;52067;50.710;14.492;2022-10-26T15:17:54;14.79;77.71
65470;DHT22;52067;50.710;14.492;2022-10-26T15:20:21;14.68;78.29
65470;DHT22;52067;50.710;14.492;2022-10-26T15:25:21;14.32;79.22
65470;DHT22;52067;50.710;14.492;2022-10-26T15:27:48;14.20;79.87
65470;DHT22;52067;50.710;14.492;2022-10-26T15:30:18;14.12;79.74
65470;DHT22;52067;50.710;14.492;2022-10-26T15:32:44;13.98;80.47
65470;DHT22;52067;50.710;14.492;2022-10-26T15:37:35;13.64;81.44
65470;DHT22;52067;50.710;14.492;2022-10-26T15:40:00;13.47;82.58
65470;DHT22;52067;50.710;14.492;2022-10-26T15:42:25;13.11;84.02
65470;DHT22;52067;50.710;14.492;2022-10-26T15:44:51;13.05;84.31
65470;DHT22;52067;50.710;14.492;2022-10-26T15:47:17;13.08;83.70
65470;DHT22;52067;50.710;14.492;2022-10-26T15:49:43;13.01;83.79
65470;DHT22;52067;50.710;14.492;2022-10-26T15:52:08;12.71;85.30
65470;DHT22;52067;50.710;14.492;2022-10-26T15:54:33;12.36;86.34
65470;DHT22;52067;50.710;14.492;2022-10-26T15:56:59;12.50;86.79
65470;DHT22;52067;50.710;14.492;2022-10-26T15:59:25;12.27;87.12
65470;DHT22;52067;50.710;14.492;2022-10-26T16:01:51;12.32;86.13
65470;DHT22;52067;50.710;14.492;2022-10-26T16:04:16;12.19;86.72
65470;DHT22;52067;50.710;14.492;2022-10-26T16:06:42;12.29;86.60
65470;DHT22;52067;50.710;14.492;2022-10-26T16:09:10;12.48;85.95
65470;DHT22;52067;50.710;14.492;2022-10-26T16:11:36;12.60;85.39
65470;DHT22;52067;50.710;14.492;2022-10-26T16:14:02;12.57;85.60
65470;DHT22;52067;50.710;14.492;2022-10-26T16:16:27;12.57;85.87
65470;DHT22;52067;50.710;14.492;2022-10-26T16:18:53;12.54;85.76
65470;DHT22;52067;50.710;14.492;2022-10-26T16:21:19;12.46;86.16
65470;DHT22;52067;50.710;14.492;2022-10-26T16:23:45;12.20;86.32
65470;DHT22;52067;50.710;14.492;2022-10-26T16:26:10;12.00;87.52
65470;DHT22;52067;50.710;14.492;2022-10-26T16:28:36;11.81;87.62
65470;DHT22;52067;50.710;14.492;2022-10-26T16:31:02;12.12;86.80
65470;DHT22;52067;50.710;14.492;2022-10-26T16:33:28;12.10;86.34
65470;DHT22;52067;50.710;14.492;2022-10-26T16:35:57;12.13;86.42
65470;DHT22;52067;50.710;14.492;2022-10-26T16:38:22;12.13;86.43
65470;DHT22;52067;50.710;14.492;2022-10-26T16:40:47;12.22;85.91
65470;DHT22;52067;50.710;14.492;2022-10-26T16:43:12;12.15;86.10
65470;DHT22;52067;50.710;14.492;2022-10-26T16:45:38;12.19;85.84
65470;DHT22;52067;50.710;14.492;2022-10-26T16:48:03;12.09;85.62
65470;DHT22;52067;50.710;14.492;2022-10-26T16:50:33;11.72;87.23
65470;DHT22;52067;50.710;14.492;2022-10-26T16:52:58;11.81;86.65
65470;DHT22;52067;50.710;14.492;2022-10-26T16:55:23;11.65;87.03
65470;DHT22;52067;50.710;14.492;2022-10-26T16:57:49;11.58;87.77
65470;DHT22;52067;50.710;14.492;2022-10-26T17:00:14;11.32;88.35
65470;DHT22;52067;50.710;14.492;2022-10-26T17:02:39;11.50;88.10
65470;DHT22;52067;50.710;14.492;2022-10-26T17:05:05;11.57;87.72
65470;DHT22;52067;50.710;14.492;2022-10-26T17:07:30;11.50;87.89
65470;DHT22;52067;50.710;14.492;2022-10-26T17:09:55;11.32;88.50
65470;DHT22;52067;50.710;14.492;2022-10-26T17:12:21;11.47;88.56
65470;DHT22;52067;50.710;14.492;2022-10-26T17:14:46;11.57;87.80
65470;DHT22;52067;50.710;14.492;2022-10-26T17:17:11;11.62;87.22
65470;DHT22;52067;50.710;14.492;2022-10-26T17:19:36;11.28;88.00
65470;DHT22;52067;50.710;14.492;2022-10-26T17:22:02;11.38;88.26
65470;DHT22;52067;50.710;14.492;2022-10-26T17:24:27;11.16;88.76
65470;DHT22;52067;50.710;14.492;2022-10-26T17:26:52;11.31;88.00
65470;DHT22;52067;50.710;14.492;2022-10-26T17:29:17;11.10;88.69
65470;DHT22;52067;50.710;14.492;2022-10-26T17:31:43;11.28;88.36
65470;DHT22;52067;50.710;14.492;2022-10-26T17:34:08;11.45;87.94
65470;DHT22;52067;50.710;14.492;2022-10-26T17:36:33;11.57;87.31
65470;DHT22;52067;50.710;14.492;2022-10-26T17:38:58;11.62;86.89
65470;DHT22;52067;50.710;14.492;2022-10-26T17:41:24;11.57;86.85
65470;DHT22;52067;50.710;14.492;2022-10-26T17:43:50;11.45;87.99
65470;DHT22;52067;50.710;14.492;2022-10-26T17:46:19;11.50;87.43